Gelida, Spain
Current Conditions -  °F | °C
As of 4:00 PM on Friday 19 Dec 2014 (Local Time) from LELL Reporting Station
Few Clouds Few Clouds  
Wind Chill: 55°   Ceiling: Unl
Heat Index: 55°   Visibility: 6mi
Dew Point: 48°   Wind: 10mph
Humidity: 77%   Direction: 270°W
Pressure: 30.3"   Gusts: NA
Location:  41.43°N, 1.87°E
Report Text: LELL 191500Z 27009KT 9999 FEW015 13/09 Q1026
Loading
Personal Weather Stations






























Interactive Weather Map New forecast layout! Learn more

10-Day Weather Forecast

Advertisements
Track Severe Weather on mobile